In Rescue
 
Open Full Screen Window  High Contrast Mode
Wind Gusting 21 knots
13
February 25, 2021 5:48 PM EST
Weather Information
Wind Direction
  300 °
Wind Speed
  13 kt (15 mph)
Wind Gust
  21 kt (24 mph)
Altimeter
30.19 in
Visibility
10 SM
Temperature
01° C
34° F
Dewpoint
-06° C
21° F
Humidity
60%
1hr Rain Fall
00.00 in.
24hr Rain Fall
00.00 in.
Sky Condition
Overcast @ 5,000 ft
Scattered @ 4,300 ft
VFR

METAR KOSC 252248Z AUTO 30013G21KT 10SM SCT043 OVC050 01/M06 A3019 RMK AO2 T00101064

FAA Disclaimer: The data displayed is for advisory purposes only and is not to be used for flight planning or operations.